Stations météo

réclame
Mon MeteoGroup
Rensjoen, Suède (2031): Température de l'air & dewpoint: 16.08.2018 01:00:00 - 22.08.2018 01:00:00 (CEST)Rensjoen, Suède (2031): Vitesse du vent & gusts: 16.08.2018 01:00:00 - 22.08.2018 01:00:00 (CEST)Rensjoen, Suède (2031): Direction du vent: 16.08.2018 01:00:00 - 22.08.2018 01:00:00 (CEST)Rensjoen, Suède (2031): visibility: 16.08.2018 01:00:00 - 22.08.2018 01:00:00 (CEST)Rensjoen, Suède (2031): Quantités de précipitations: 16.08.2018 01:00:00 - 22.08.2018 01:00:00 (CEST)
Date & Time tt [°C] td [°C] ff [km/h] ff [knt] fx [km/h] fx [knt] dd vv [km] rr [mm]
22.08.2018 01:00:00 0,9 0,7 2 1 10 6 ENE 50 0,0
22.08.2018 00:00:00 1,3 1,0 4 2 11 6 SSE 50 0,0
21.08.2018 23:00:00 1,4 0,7 5 3 11 6 ENE 17 0,0
21.08.2018 22:00:00 3,0 1,8 6 3 14 8 ENE 50 0,0
21.08.2018 21:00:00 4,0 1,9 5 3 20 11 N 50 0,0
21.08.2018 20:00:00 7,6 2,7 7 4 24 13 NW 50 0,0
21.08.2018 19:00:00 7,7 3,0 14 7 29 16 NNW 50 0,0
21.08.2018 18:00:00 7,9 2,6 18 10 29 16 N 50 0,0
21.08.2018 17:00:00 7,8 2,7 16 9 40 22 N 50 0,0
21.08.2018 16:00:00 8,0 2,2 19 11 36 19 N 50 0,0
21.08.2018 15:00:00 8,3 1,4 22 12 37 20 N 49 0,0
21.08.2018 14:00:00 10,3 2,6 22 12 39 21 NNW 38 0,0
21.08.2018 13:00:00 9,1 2,9 21 11 40 21 NNW 48 0,0
21.08.2018 12:00:00 8,6 2,6 24 13 40 22 NNW 49 0,0
21.08.2018 11:00:00 8,2 2,9 19 10 34 18 NNW 50 0,0
21.08.2018 10:00:00 7,4 3,4 13 7 25 14 N 50 0,0
21.08.2018 09:00:00 7,6 3,6 13 7 25 14 N 49 0,0
21.08.2018 08:00:00 6,5 2,9 16 8 24 13 N 50 0,0
21.08.2018 07:00:00 5,5 2,3 11 6 23 12 NNW 50 0,0
21.08.2018 06:00:00 4,8 2,2 7 4 14 8 N 50 0,0
21.08.2018 05:00:00 2,1 0,5 3 2 15 8 NNE 50 0,0
21.08.2018 04:00:00 4,0 1,9 11 6 21 12 NW 50 0,0
21.08.2018 03:00:00 4,5 2,4 5 3 15 8 N 50 0,0
21.08.2018 02:00:00 5,1 3,8 9 5 16 9 N 50 0,0
21.08.2018 01:00:00 5,3 3,3 4 2 14 8 WNW 50 0,0
21.08.2018 00:00:00 5,6 4,4 3 2 10 6 NNE 50 0,1
20.08.2018 23:00:00 5,9 4,2 5 3 10 5 N 50 0,0
20.08.2018 22:00:00 5,0 3,8 6 3 17 9 NNE 50 0,0
20.08.2018 21:00:00 6,6 3,7 11 6 22 12 N 50 0,0
20.08.2018 20:00:00 7,7 3,5 11 6 24 13 NNW 50 0,0
20.08.2018 19:00:00 7,6 3,6 13 7 32 17 NNW 50 0,0
20.08.2018 18:00:00 8,5 4,1 19 10 34 19 NNW 50 0,0
20.08.2018 17:00:00 9,8 4,6 19 11 37 20 NNW 47 0,0
20.08.2018 16:00:00 11,1 4,8 21 11 38 20 NNW 38 0,0
20.08.2018 15:00:00 10,8 4,5 21 11 36 20 NNW 39 0,0
20.08.2018 14:00:00 10,1 4,2 22 12 38 21 NNW 50 0,0
20.08.2018 13:00:00 11,0 4,7 18 10 31 17 NNW 50 0,0
20.08.2018 12:00:00 11,1 5,2 16 8 28 15 N 37 0,0
20.08.2018 11:00:00 9,0 4,6 13 7 39 21 N 37 0,0
20.08.2018 10:00:00 10,1 5,1 20 11 32 17 NNW 46 0,0
20.08.2018 09:00:00 9,6 6,9 13 7 21 11 NNW 39 0,0
20.08.2018 08:00:00 9,7 7,1 3 2 16 8 SSE 49 0,0
20.08.2018 07:00:00 8,7 7,8 2 1 6 3 SSW 50 0,0
20.08.2018 06:00:00 7,5 6,9 5 3 9 5 NNE 48 0,0
20.08.2018 05:00:00 6,9 6,3 2 1 9 5 NNW 50 0,0
20.08.2018 04:00:00 6,2 5,9 2 1 6 3 N 50 0,0
20.08.2018 03:00:00 6,2 6,1 4 2 8 4 SE 50 0,0
20.08.2018 02:00:00 6,6 6,3 5 3 9 5 E 50 0,0
20.08.2018 01:00:00 6,3 6,0 0 0 10 6 N 50 0,0
20.08.2018 00:00:00 6,9 6,3 0 0 8 4 N 50 0,0
19.08.2018 23:00:00 7,8 6,1 2 1 11 6 NNW 50 0,0
19.08.2018 22:00:00 7,8 5,9 4 2 14 7 NE 50 0,0
19.08.2018 21:00:00 8,4 5,7 9 5 11 6 S 50 0,0
19.08.2018 20:00:00 10,5 5,3 4 2 21 12 W 50 0,0
19.08.2018 19:00:00 12,1 4,8 7 4 24 13 W 50 0,0
19.08.2018 18:00:00 12,4 5,1 13 7 29 16 W 45 0,0
19.08.2018 17:00:00 13,7 5,1 18 10 38 21 WSW 50 0,0
19.08.2018 16:00:00 12,2 5,1 20 11 39 21 SW 50 0,0
19.08.2018 15:00:00 13,7 5,3 21 11 36 19 SSW 46 0,0
19.08.2018 14:00:00 13,1 5,0 19 10 39 21 SW 50 0,0
19.08.2018 13:00:00 14,6 5,1 11 6 25 13 WSW 50 0,0
19.08.2018 12:00:00 13,3 5,7 12 6 31 17 SW 50 0,0
19.08.2018 11:00:00 13,1 5,3 16 8 23 13 SW 42 0,0
19.08.2018 10:00:00 12,9 6,5 8 4 15 8 WSW 45 0,0
19.08.2018 09:00:00 11,2 8,4 4 2 6 4 SSE 50 0,0
19.08.2018 08:00:00 9,5 9,0 5 3 9 5 S 50 0,1
19.08.2018 07:00:00 9,1 8,5 0 0 9 5 N 50 0,1
19.08.2018 06:00:00 8,4 8,3 0 0 5 3 N 50 0,2
19.08.2018 05:00:00 8,3 8,2 3 2 5 3 NNE 50 0,2
19.08.2018 04:00:00 8,3 8,0 3 2 11 6 ENE 25 0,4
19.08.2018 03:00:00 9,0 8,2 8 5 15 8 SSE 14 0,4
19.08.2018 02:00:00 9,5 8,7 11 6 25 14 S 50 0,0
19.08.2018 01:00:00 9,4 9,1 10 6 22 12 SSE 50 0,2
19.08.2018 00:00:00 9,7 9,4 16 8 24 13 SSE 32 0,2
18.08.2018 23:00:00 9,8 9,5 14 8 26 14 SE 47 0,1
18.08.2018 22:00:00 10,1 9,5 14 8 24 13 SSE 47 0,7
18.08.2018 21:00:00 10,5 10,0 6 4 23 12 SSW 9 1,6
18.08.2018 20:00:00 11,5 8,9 15 8 29 16 SSE 35 0,1
18.08.2018 19:00:00 11,5 8,2 22 12 32 18 SSE 32 0,1
18.08.2018 18:00:00 12,3 8,8 17 9 48 26 SSE 21 0,1
18.08.2018 17:00:00 14,7 6,0 24 13 39 21 S 50 0,0
18.08.2018 16:00:00 14,9 4,9 24 13 43 23 S 50 0,0
18.08.2018 15:00:00 15,7 4,7 24 13 44 24 SSW 49 0,0
18.08.2018 14:00:00 17,1 4,4 26 14 37 20 SSW 40 0,0
18.08.2018 13:00:00 17,1 5,1 19 10 33 18 S 44 0,0
18.08.2018 12:00:00 14,9 4,9 12 6 38 21 SW 50 0,0
18.08.2018 11:00:00 15,2 3,7 25 13 35 19 SSW 49 0,0
18.08.2018 10:00:00 15,1 3,3 15 8 31 17 SW 49 0,0
18.08.2018 09:00:00 14,3 3,1 19 10 32 17 SW 48 0,0
18.08.2018 08:00:00 13,0 4,4 16 9 28 15 SW 47 0,0
18.08.2018 07:00:00 12,1 3,8 14 7 22 12 W 50 0,0
18.08.2018 06:00:00 9,1 4,7 12 6 18 10 SW 50 0,0
18.08.2018 05:00:00 6,4 5,7 7 4 18 10 ESE 50 0,0
18.08.2018 04:00:00 5,2 5,2 7 4 10 5 SW 50 0,0
18.08.2018 03:00:00 4,2 4,2 4 2 7 4 E 0,2 0,0
18.08.2018 02:00:00 4,7 4,6 4 2 7 4 SSW 0,4 0,0
18.08.2018 01:00:00 5,8 5,2 2 1 5 3 NE 50 0,0
18.08.2018 00:00:00 7,1 6,8 4 2 7 4 W 3,5 0,0
17.08.2018 23:00:00 8,6 7,8 0 0 6 3 N 50 0,0
17.08.2018 22:00:00 10,2 8,3 3 1 9 5 NNW 50 0,0
17.08.2018 21:00:00 10,9 8,5 5 3 10 6 NNE 50 0,0
17.08.2018 20:00:00 13,1 8,2 6 3 16 9 NNE 50 0,0
17.08.2018 19:00:00 14,7 9,5 8 4 17 9 N 50 0,0
17.08.2018 18:00:00 14,7 9,7 5 3 24 13 N 50 0,0
17.08.2018 17:00:00 16,5 10,4 10 5 18 10 NE 48 0,0
17.08.2018 16:00:00 15,4 10,2 8 4 24 13 NNE 43 0,0
17.08.2018 15:00:00 13,5 10,1 14 7 36 19 N 50 0,0
17.08.2018 14:00:00 17,7 8,5 16 8 35 19 W 50 0,0
17.08.2018 13:00:00 17,6 11,2 23 12 52 28 SSW 50 0,0
17.08.2018 12:00:00 17,3 12,0 30 16 42 23 S 50 0,0
17.08.2018 11:00:00 16,5 12,5 21 11 39 21 S 50 0,0
17.08.2018 10:00:00 15,1 12,6 16 8 37 20 SE 50 0,0
17.08.2018 09:00:00 14,7 12,7 21 11 45 24 SE 50 0,0
17.08.2018 08:00:00 14,5 13,0 24 13 54 29 SSE 14 0,0
17.08.2018 07:00:00 14,3 13,0 35 19 56 31 S 7 0,0
17.08.2018 06:00:00 14,5 12,7 34 19 52 28 S 29 0,0
17.08.2018 05:00:00 14,1 13,0 31 17 47 25 SSE 27 0,0
17.08.2018 04:00:00 14,0 13,0 30 16 44 24 SSE 50 0,0
17.08.2018 03:00:00 13,5 13,0 21 11 42 23 SSE 6 0,0
17.08.2018 02:00:00 13,2 12,7 23 13 42 23 SSE 50 0,1
17.08.2018 01:00:00 13,4 12,6 17 9 30 16 SSE 14 0,1
17.08.2018 00:00:00 13,3 12,8 23 12 33 18 S 50 0,0
16.08.2018 23:00:00 13,1 12,3 14 8 32 18 S 31 0,0
16.08.2018 22:00:00 13,1 12,5 16 9 29 15 SE 50 0,0
16.08.2018 21:00:00 12,9 12,4 21 11 28 15 SSE 50 0,0
16.08.2018 20:00:00 12,5 12,2 17 9 24 13 SSE 10 0,3
16.08.2018 19:00:00 12,3 11,8 16 8 25 14 SSE 9 0,0
16.08.2018 18:00:00 12,2 11,3 14 7 24 13 SSE 42 0,0
16.08.2018 17:00:00 11,7 11,1 15 8 30 16 SSE 3,7 0,0
16.08.2018 16:00:00 12,3 10,2 18 10 36 19 S 50 0,0
16.08.2018 15:00:00 12,6 10,0 22 12 32 17 S 50 0,0
16.08.2018 14:00:00 11,8 10,0 21 11 32 17 S 50 0,0
16.08.2018 13:00:00 11,1 9,5 23 12 33 18 SSE 50 0,0
16.08.2018 12:00:00 10,3 9,4 19 10 27 15 SSE 41 0,0
16.08.2018 11:00:00 10,6 9,5 16 9 26 14 S 41 0,0
16.08.2018 10:00:00 10,0 9,4 17 9 26 14 S 35 0,0
16.08.2018 09:00:00 9,6 8,8 13 7 29 16 SSE 49 0,0
16.08.2018 08:00:00 9,4 8,5 18 10 29 15 S 50 0,0
16.08.2018 07:00:00 9,2 8,4 14 7 24 13 SSE 50 0,0
16.08.2018 06:00:00 9,1 8,5 18 10 26 14 SSE 50 0,0
16.08.2018 05:00:00 8,6 8,3 16 9 22 12 SSE 26 0,0
16.08.2018 04:00:00 8,7 7,8 13 7 26 14 SE 26 0,0
16.08.2018 03:00:00 8,6 7,5 13 7 20 11 S 50 0,0
16.08.2018 02:00:00 8,2 7,0 10 6 16 9 S 50 0,0
16.08.2018 01:00:00 7,5 6,4 7 4 15 8 S 50 0,0

tt = Température de l'air
td = dewpoint
ff = Vitesse du vent
fx = gusts
dd = Direction du vent
vv = visibility
rr = Quantités de précipitations

stations d'obs. à proximité